This is the latest recevied weather packets stored in our database for station/object wb2ifs-13. If no packets are shown the sender has not sent any weather packets the latest 10 day(s).
| Time | Temp. | Humidity | Pressure | Rain* | Wind** | Luminosity | Snow |
|---|---|---|---|---|---|---|---|
| 1788559207 | 26.11° C | 87% | 1013.2 hPa | 0 mm | - | - | - |
| 1788558303 | 26.67° C | 86% | 1013.4 hPa | 0 mm | - | - | - |
| 1788557404 | 26.67° C | 84% | 1013.5 hPa | 0 mm | - | - | - |
| 1788556504 | 27.78° C | 81% | 1013.3 hPa | 0 mm | - | - | - |
| 1788555605 | 28.33° C | 77% | 1013.7 hPa | 0 mm | - | - | - |
| 1788554703 | 28.33° C | 77% | 1013.5 hPa | 0 mm | - | - | - |
| 1788553804 | 28.89° C | 75% | 1013.5 hPa | 0 mm | - | - | - |
| 1788552904 | 30° C | 72% | 1013.6 hPa | 0 mm | - | - | - |
| 1788552004 | 31.11° C | 70% | 1013.1 hPa | 0 mm | - | - | - |
| 1788551104 | 32.22° C | 67% | 1013.5 hPa | 0 mm | - | - | - |
| 1788550205 | 32.78° C | 65% | 1013.2 hPa | 0 mm | - | - | - |
| 1788549303 | 32.78° C | 64% | 1013.3 hPa | 0 mm | - | - | - |
| 1788548403 | 32.78° C | 62% | 1013.7 hPa | 0 mm | - | - | - |
| 1788547503 | 32.22° C | 65% | 1014 hPa | 0 mm | - | - | - |
| 1788546603 | 32.22° C | 62% | 1014 hPa | 0 mm | - | - | - |
| 1788545704 | 31.67° C | 65% | 1014.1 hPa | 0 mm | - | - | - |
| 1788544806 | 32.22° C | 66% | 1014.2 hPa | 0 mm | - | - | - |
| 1788543905 | 32.22° C | 65% | 1014.2 hPa | 0 mm | - | - | - |
| 1788543005 | 32.22° C | 67% | 1014.5 hPa | 0 mm | - | - | - |
| 1788542105 | 31.67° C | 70% | 1014.7 hPa | 0 mm | - | - | - |
| 1788541206 | 31.11° C | 69% | 1014.6 hPa | 0 mm | - | - | - |
| 1788540303 | 31.11° C | 73% | 1014.9 hPa | 0 mm | - | - | - |
| 1788539405 | 30.56° C | 73% | 1015 hPa | 0 mm | - | - | - |
| 1788538504 | 30.56° C | 72% | 1015.2 hPa | 0 mm | - | - | - |
| 1788537605 | 30° C | 77% | 1015.2 hPa | 0 mm | - | - | - |
* Rain latest hour (hover to see other rain measurements)
** Current wind speed in m/s (hover to see current wind gust speed)